Time;durP1;ratioP1;P1;durP2;ratioP2;P2;SDS_P1;SDS_P2;PMS_P1;PMS_P2;Temp;Humidity;BMP_temperature;BMP_pressure;BME280_temperature;BME280_humidity;BME280_pressure;Samples;Min_cycle;Max_cycle;Signal;HPM_P1;HPM_P2
2022/12/30 00:01:40;;;;;;;15.33;3.70;;;;;;;;;;6236497;22;20656;-75
2022/12/30 00:04:05;;;;;;;18.70;3.50;;;;;;;;;;6236707;23;20135;-75
2022/12/30 00:06:31;;;;;;;12.83;3.50;;;;;;;;;;6236152;22;20146;-76
2022/12/30 00:08:57;;;;;;;23.57;3.80;;;;;;;;;;6237046;22;20167;-75
2022/12/30 00:11:22;;;;;;;14.20;3.23;;;;;;;;;;6238763;22;20151;-76
2022/12/30 00:33:40;;;;;;;17.93;4.30;;;;;;;;;;6235318;23;20373;-75
2022/12/30 00:36:06;;;;;;;17.83;4.10;;;;;;;;;;6225335;23;20482;-75
2022/12/30 00:38:31;;;;;;;22.67;3.87;;;;;;;;;;6235495;22;20476;-76
2022/12/30 00:43:40;;;;;;;16.73;3.77;;;;;;;;;;6235271;23;20201;-76
2022/12/30 00:46:05;;;;;;;15.57;4.40;;;;;;;;;;6235191;23;20370;-76
2022/12/30 00:56:44;;;;;;;19.57;4.00;;;;;;;;;;6238235;23;20353;-76
2022/12/30 00:59:09;;;;;;;19.30;4.33;;;;;;;;;;6238896;22;20444;-75
2022/12/30 01:01:35;;;;;;;15.27;3.67;;;;;;;;;;6235271;23;20366;-75
2022/12/30 01:04:00;;;;;;;19.20;4.00;;;;;;;;;;6240606;23;20148;-75
2022/12/30 01:06:25;;;;;;;17.43;4.20;;;;;;;;;;6238250;23;20183;-75
2022/12/30 01:08:50;;;;;;;16.63;3.80;;;;;;;;;;6235642;22;20712;-75
2022/12/30 01:11:16;;;;;;;17.90;3.80;;;;;;;;;;6238306;22;20143;-75
2022/12/30 01:13:41;;;;;;;14.13;3.87;;;;;;;;;;6236605;23;20147;-75
2022/12/30 01:16:08;;;;;;;16.20;4.60;;;;;;;;;;6237441;23;20150;-75
2022/12/30 01:18:33;;;;;;;18.83;4.30;;;;;;;;;;6236410;22;20210;-76
2022/12/30 01:20:59;;;;;;;17.87;4.50;;;;;;;;;;6237327;22;20366;-76
2022/12/30 01:23:24;;;;;;;16.37;3.80;;;;;;;;;;6239051;22;20196;-76
2022/12/30 01:25:49;;;;;;;17.50;3.80;;;;;;;;;;6240708;23;20143;-75
2022/12/30 01:28:15;;;;;;;18.50;4.57;;;;;;;;;;6238007;22;20151;-75
2022/12/30 01:30:40;;;;;;;19.90;3.80;;;;;;;;;;6242258;23;20225;-75
2022/12/30 01:33:07;;;;;;;16.83;4.20;;;;;;;;;;6237653;23;20165;-75
2022/12/30 01:35:33;;;;;;;15.60;3.40;;;;;;;;;;6241960;22;20148;-75
2022/12/30 01:37:58;;;;;;;17.73;4.10;;;;;;;;;;6241429;23;20420;-76
2022/12/30 01:40:23;;;;;;;23.70;4.43;;;;;;;;;;6238408;22;20201;-76
2022/12/30 01:42:49;;;;;;;14.07;3.63;;;;;;;;;;6239565;22;20350;-75
2022/12/30 01:45:19;;;;;;;14.90;4.03;;;;;;;;;;6240591;22;20143;-76
2022/12/30 01:47:48;;;;;;;16.47;4.50;;;;;;;;;;6238644;22;20143;-75
2022/12/30 01:50:13;;;;;;;21.50;4.77;;;;;;;;;;6240718;22;20409;-75
2022/12/30 01:52:40;;;;;;;18.30;3.90;;;;;;;;;;6241196;22;20852;-76
2022/12/30 01:55:09;;;;;;;16.67;3.70;;;;;;;;;;6238348;22;20170;-75
2022/12/30 01:57:35;;;;;;;19.70;4.20;;;;;;;;;;6235405;23;20386;-75
2022/12/30 02:00:02;;;;;;;22.10;3.97;;;;;;;;;;6239169;22;20839;-76
2022/12/30 02:02:28;;;;;;;19.60;4.33;;;;;;;;;;6237820;22;20355;-75
2022/12/30 02:04:53;;;;;;;14.67;3.37;;;;;;;;;;6239220;22;20363;-75
2022/12/30 02:07:27;;;;;;;13.40;3.70;;;;;;;;;;6239502;23;20150;-76
2022/12/30 02:09:53;;;;;;;13.00;3.10;;;;;;;;;;6235717;22;20186;-75
2022/12/30 02:12:19;;;;;;;24.27;4.40;;;;;;;;;;6233494;23;20386;-76
2022/12/30 02:14:45;;;;;;;21.00;4.10;;;;;;;;;;6237991;22;20144;-76
2022/12/30 02:17:13;;;;;;;17.70;3.73;;;;;;;;;;6236942;23;20640;-76
2022/12/30 02:19:57;;;;;;;14.03;3.50;;;;;;;;;;6238359;22;20421;-76
2022/12/30 02:22:22;;;;;;;17.17;4.00;;;;;;;;;;6237728;23;20362;-75
2022/12/30 02:25:03;;;;;;;16.20;3.43;;;;;;;;;;6238346;23;20366;-76
2022/12/30 02:27:31;;;;;;;18.33;3.80;;;;;;;;;;6235475;23;20170;-76
2022/12/30 02:30:15;;;;;;;16.73;3.57;;;;;;;;;;6237495;22;20390;-76
2022/12/30 02:32:49;;;;;;;16.07;3.67;;;;;;;;;;6237884;23;20366;-76
2022/12/30 02:35:33;;;;;;;23.27;4.03;;;;;;;;;;6238371;23;20376;-76
2022/12/30 02:38:13;;;;;;;21.10;3.80;;;;;;;;;;6236376;23;20370;-76
2022/12/30 02:46:15;;;;;;;18.53;3.87;;;;;;;;;;6239332;23;20346;-75
2022/12/30 02:48:43;;;;;;;11.47;4.00;;;;;;;;;;6239471;22;20382;-76
2022/12/30 02:53:53;;;;;;;17.50;4.53;;;;;;;;;;6239461;23;20362;-76
2022/12/30 02:56:18;;;;;;;31.53;5.00;;;;;;;;;;6237269;22;20370;-76
2022/12/30 02:58:46;;;;;;;14.47;3.20;;;;;;;;;;6237295;22;20183;-76
2022/12/30 03:04:15;;;;;;;16.03;3.60;;;;;;;;;;6237817;23;20409;-76
2022/12/30 03:06:50;;;;;;;20.87;3.90;;;;;;;;;;6235600;23;20373;-76
2022/12/30 03:09:33;;;;;;;23.17;4.20;;;;;;;;;;6237971;22;20386;-76
2022/12/30 03:12:04;;;;;;;16.17;3.43;;;;;;;;;;6237805;23;20868;-76
2022/12/30 03:14:42;;;;;;;20.37;4.17;;;;;;;;;;6235729;22;21316;-76
2022/12/30 03:17:13;;;;;;;13.47;2.97;;;;;;;;;;6238204;22;20409;-76
2022/12/30 03:19:42;;;;;;;9.70;3.23;;;;;;;;;;6239895;22;20422;-76
2022/12/30 03:27:03;;;;;;;17.10;3.20;;;;;;;;;;6236893;22;20358;-77
2022/12/30 03:27:40;;;;;;;23.27;4.00;;;;;;;;;;6238737;23;20761;-76
2022/12/30 03:30:06;;;;;;;18.10;3.77;;;;;;;;;;6241059;22;20436;-76
2022/12/30 03:32:32;;;;;;;20.10;4.20;;;;;;;;;;6239280;22;20838;-76
2022/12/30 03:35:00;;;;;;;20.27;4.33;;;;;;;;;;6238405;23;20182;-76
2022/12/30 03:37:27;;;;;;;23.33;4.80;;;;;;;;;;6238689;22;20824;-76
2022/12/30 03:40:11;;;;;;;22.40;4.30;;;;;;;;;;6239707;22;20428;-76
2022/12/30 03:42:37;;;;;;;15.83;3.47;;;;;;;;;;6239925;23;20366;-76
2022/12/30 03:45:02;;;;;;;21.40;4.23;;;;;;;;;;6241400;22;20366;-76
2022/12/30 03:47:28;;;;;;;18.53;3.53;;;;;;;;;;6236965;23;20562;-76
2022/12/30 03:49:53;;;;;;;16.80;3.97;;;;;;;;;;6239047;22;20254;-76
2022/12/30 03:52:21;;;;;;;11.90;3.40;;;;;;;;;;6238476;22;20228;-76
2022/12/30 03:54:47;;;;;;;18.20;4.17;;;;;;;;;;6237203;23;20605;-76
2022/12/30 03:57:12;;;;;;;14.40;3.13;;;;;;;;;;6237463;22;20394;-76
2022/12/30 03:59:38;;;;;;;13.13;3.67;;;;;;;;;;6236518;22;20183;-75
2022/12/30 04:02:03;;;;;;;22.10;3.70;;;;;;;;;;6235208;22;20175;-76
2022/12/30 04:04:28;;;;;;;19.23;3.40;;;;;;;;;;6237369;23;20139;-76
2022/12/30 04:06:54;;;;;;;12.97;4.00;;;;;;;;;;6237060;22;20642;-76
2022/12/30 04:09:19;;;;;;;17.87;4.43;;;;;;;;;;6237561;22;20177;-76
2022/12/30 04:11:46;;;;;;;20.70;3.87;;;;;;;;;;6235030;22;20151;-77
2022/12/30 04:14:12;;;;;;;11.77;2.87;;;;;;;;;;6236566;22;20154;-76
2022/12/30 04:16:37;;;;;;;14.03;3.57;;;;;;;;;;6234706;23;20370;-77
2022/12/30 04:19:03;;;;;;;21.83;3.13;;;;;;;;;;6234430;22;20187;-76
2022/12/30 04:21:28;;;;;;;20.93;3.87;;;;;;;;;;6235233;23;20551;-76
2022/12/30 04:23:56;;;;;;;20.37;4.00;;;;;;;;;;6237763;23;20624;-76
2022/12/30 04:26:21;;;;;;;16.03;3.47;;;;;;;;;;6234443;22;20210;-76
2022/12/30 04:28:46;;;;;;;19.47;4.07;;;;;;;;;;6237227;22;20393;-76
2022/12/30 04:31:12;;;;;;;13.10;3.23;;;;;;;;;;6238194;22;20154;-76
2022/12/30 04:33:37;;;;;;;14.50;4.10;;;;;;;;;;6238383;23;20143;-76
2022/12/30 04:36:03;;;;;;;15.80;3.80;;;;;;;;;;6239675;22;20161;-76
2022/12/30 04:38:28;;;;;;;17.83;4.13;;;;;;;;;;6239555;22;20695;-76
2022/12/30 04:40:56;;;;;;;13.63;3.40;;;;;;;;;;6240354;23;20139;-76
2022/12/30 04:43:21;;;;;;;21.53;4.63;;;;;;;;;;6240235;22;20254;-76
2022/12/30 04:45:46;;;;;;;15.33;3.80;;;;;;;;;;6240693;23;20370;-76
2022/12/30 04:48:11;;;;;;;23.83;4.80;;;;;;;;;;6238344;22;20193;-76
2022/12/30 04:50:39;;;;;;;19.53;3.70;;;;;;;;;;6243319;22;20609;-76
2022/12/30 04:53:05;;;;;;;26.90;3.80;;;;;;;;;;6241520;22;20223;-76
2022/12/30 04:55:32;;;;;;;13.87;3.10;;;;;;;;;;6243323;23;20760;-76
2022/12/30 04:57:57;;;;;;;13.73;3.60;;;;;;;;;;6241685;22;20604;-76
2022/12/30 05:00:23;;;;;;;21.50;3.87;;;;;;;;;;6239646;22;20455;-76
2022/12/30 05:02:48;;;;;;;17.60;4.07;;;;;;;;;;6240423;22;20248;-76
2022/12/30 05:05:16;;;;;;;16.43;3.83;;;;;;;;;;6239469;23;20147;-76
2022/12/30 05:07:41;;;;;;;18.03;4.37;;;;;;;;;;6241867;22;20586;-76
2022/12/30 05:10:06;;;;;;;15.50;4.00;;;;;;;;;;6240522;22;20392;-76
2022/12/30 05:12:34;;;;;;;19.47;3.97;;;;;;;;;;6235934;23;20226;-76
2022/12/30 05:14:59;;;;;;;20.70;4.03;;;;;;;;;;6239275;22;20147;-76
2022/12/30 05:17:27;;;;;;;15.50;4.07;;;;;;;;;;6238040;23;20370;-76
2022/12/30 05:19:52;;;;;;;15.73;3.77;;;;;;;;;;6240069;22;20174;-76
2022/12/30 05:22:20;;;;;;;13.20;3.97;;;;;;;;;;6238901;23;20374;-76
2022/12/30 05:27:29;;;;;;;15.70;4.47;;;;;;;;;;6236971;23;20350;-76
2022/12/30 05:29:55;;;;;;;11.17;4.40;;;;;;;;;;6237682;22;20853;-76
2022/12/30 05:32:22;;;;;;;15.80;4.93;;;;;;;;;;6236746;23;20179;-76
2022/12/30 05:34:47;;;;;;;23.30;5.23;;;;;;;;;;6236611;23;20720;-77
2022/12/30 05:37:13;;;;;;;13.80;5.03;;;;;;;;;;6237439;22;20390;-76
2022/12/30 05:39:38;;;;;;;15.47;5.30;;;;;;;;;;6236718;22;20191;-77
2022/12/30 05:42:03;;;;;;;13.03;5.13;;;;;;;;;;6230045;22;20306;-70
2022/12/30 05:44:29;;;;;;;18.90;5.27;;;;;;;;;;6233215;23;20654;-71
2022/12/30 05:46:54;;;;;;;17.10;4.47;;;;;;;;;;6236836;23;20144;-71
2022/12/30 05:49:19;;;;;;;17.03;5.10;;;;;;;;;;6234491;23;20193;-70
2022/12/30 05:51:45;;;;;;;16.63;4.13;;;;;;;;;;6241291;22;20178;-71
2022/12/30 05:54:10;;;;;;;17.70;4.83;;;;;;;;;;6235946;23;20590;-71
2022/12/30 05:56:35;;;;;;;13.33;3.67;;;;;;;;;;6237347;22;20232;-71
2022/12/30 05:59:01;;;;;;;13.33;4.40;;;;;;;;;;6235281;22;20171;-71
2022/12/30 06:01:26;;;;;;;17.27;4.93;;;;;;;;;;6236890;22;20151;-71
2022/12/30 06:03:55;;;;;;;17.50;4.63;;;;;;;;;;6236678;22;20140;-71
2022/12/30 06:06:20;;;;;;;13.33;3.37;;;;;;;;;;6238336;22;20143;-71
2022/12/30 06:08:46;;;;;;;13.43;4.20;;;;;;;;;;6237038;23;20373;-70
2022/12/30 06:11:11;;;;;;;15.93;3.23;;;;;;;;;;6232717;22;20147;-71
2022/12/30 06:13:36;;;;;;;11.93;4.17;;;;;;;;;;6234687;23;20155;-72
2022/12/30 06:16:02;;;;;;;15.43;4.63;;;;;;;;;;6236189;22;20154;-71
2022/12/30 06:18:30;;;;;;;15.00;4.70;;;;;;;;;;6237412;23;20255;-71
2022/12/30 06:20:55;;;;;;;12.07;3.87;;;;;;;;;;6237743;22;20167;-71
2022/12/30 06:23:21;;;;;;;12.33;3.20;;;;;;;;;;6240775;22;20389;-71
2022/12/30 06:25:50;;;;;;;16.00;3.57;;;;;;;;;;6237364;22;20563;-71
2022/12/30 06:28:15;;;;;;;11.83;4.60;;;;;;;;;;6231681;22;20171;-70
2022/12/30 06:30:40;;;;;;;11.33;3.50;;;;;;;;;;6239491;23;20947;-70
2022/12/30 06:33:06;;;;;;;9.60;3.20;;;;;;;;;;6239674;22;20182;-71
2022/12/30 06:35:34;;;;;;;14.70;3.70;;;;;;;;;;6239767;22;20586;-71
2022/12/30 06:37:59;;;;;;;10.20;3.60;;;;;;;;;;6239852;22;20148;-71
2022/12/30 06:40:24;;;;;;;12.00;3.43;;;;;;;;;;6240265;23;20428;-71
2022/12/30 06:42:50;;;;;;;17.10;4.03;;;;;;;;;;6238325;22;20214;-69
2022/12/30 06:45:15;;;;;;;8.90;2.97;;;;;;;;;;6237854;22;20165;-72
2022/12/30 06:47:41;;;;;;;15.00;3.83;;;;;;;;;;6241146;23;20150;-72
2022/12/30 06:50:06;;;;;;;17.70;3.87;;;;;;;;;;6241500;22;20151;-72
2022/12/30 06:52:31;;;;;;;10.90;4.00;;;;;;;;;;6242111;22;20171;-72
2022/12/30 06:54:57;;;;;;;11.63;3.73;;;;;;;;;;6241031;22;20144;-72
2022/12/30 06:57:22;;;;;;;11.50;3.00;;;;;;;;;;6240681;23;20212;-71
2022/12/30 06:59:47;;;;;;;22.00;3.73;;;;;;;;;;6236653;23;20193;-71
2022/12/30 07:02:13;;;;;;;19.73;4.30;;;;;;;;;;6237514;22;20593;-71
2022/12/30 07:04:38;;;;;;;14.23;3.60;;;;;;;;;;6238511;22;20139;-71
2022/12/30 07:07:04;;;;;;;10.60;3.17;;;;;;;;;;6239046;23;20600;-71
2022/12/30 07:09:29;;;;;;;11.67;3.60;;;;;;;;;;6236083;22;20148;-70
2022/12/30 07:11:54;;;;;;;14.13;3.97;;;;;;;;;;6238417;22;20171;-68
2022/12/30 07:14:19;;;;;;;10.83;3.93;;;;;;;;;;6235507;23;20143;-70
2022/12/30 07:16:45;;;;;;;15.60;3.60;;;;;;;;;;6237255;22;20153;-70
2022/12/30 07:19:11;;;;;;;11.70;3.20;;;;;;;;;;6235914;22;20249;-70
2022/12/30 07:21:37;;;;;;;16.77;3.90;;;;;;;;;;6236260;22;20552;-71
2022/12/30 07:24:02;;;;;;;16.70;3.83;;;;;;;;;;6240814;22;20147;-70
2022/12/30 07:26:27;;;;;;;9.10;2.83;;;;;;;;;;6235449;22;20458;-71
2022/12/30 07:28:55;;;;;;;16.13;3.40;;;;;;;;;;6235532;22;20655;-70
2022/12/30 07:31:21;;;;;;;9.83;2.70;;;;;;;;;;6238826;22;20171;-69
2022/12/30 07:33:46;;;;;;;13.53;3.40;;;;;;;;;;6239049;22;20373;-70
2022/12/30 07:36:12;;;;;;;10.47;2.57;;;;;;;;;;6239201;22;20623;-70
2022/12/30 07:38:38;;;;;;;13.23;3.83;;;;;;;;;;6236742;22;20170;-70
2022/12/30 07:41:03;;;;;;;14.93;3.30;;;;;;;;;;6236907;23;20370;-70
2022/12/30 07:43:29;;;;;;;16.40;3.10;;;;;;;;;;6239817;22;20178;-70
2022/12/30 07:45:54;;;;;;;11.10;2.83;;;;;;;;;;6234820;22;20201;-71
2022/12/30 07:48:19;;;;;;;11.43;2.87;;;;;;;;;;6238493;22;20147;-71
2022/12/30 07:50:45;;;;;;;16.60;3.87;;;;;;;;;;6237839;23;20192;-71
2022/12/30 07:53:10;;;;;;;11.27;3.47;;;;;;;;;;6237863;22;20174;-71
2022/12/30 07:55:41;;;;;;;15.03;2.87;;;;;;;;;;6237240;23;20876;-71
2022/12/30 07:58:07;;;;;;;9.63;3.10;;;;;;;;;;6238913;22;20224;-72
2022/12/30 08:00:32;;;;;;;11.10;3.37;;;;;;;;;;6239131;22;20723;-71
2022/12/30 08:02:58;;;;;;;18.60;3.50;;;;;;;;;;6238648;22;20257;-70
2022/12/30 08:05:23;;;;;;;10.20;2.80;;;;;;;;;;6236876;22;20637;-71
2022/12/30 08:07:51;;;;;;;12.13;3.40;;;;;;;;;;6237355;22;20521;-71
2022/12/30 08:10:16;;;;;;;10.10;2.70;;;;;;;;;;6239285;22;20434;-71
2022/12/30 08:12:41;;;;;;;11.33;3.10;;;;;;;;;;6237120;22;20389;-71
2022/12/30 08:15:07;;;;;;;12.90;3.00;;;;;;;;;;6236530;23;20147;-72
2022/12/30 08:17:32;;;;;;;11.90;2.90;;;;;;;;;;6233275;23;20166;-70
2022/12/30 08:19:58;;;;;;;13.00;2.80;;;;;;;;;;6236493;23;20859;-71
2022/12/30 08:22:23;;;;;;;11.10;2.87;;;;;;;;;;6238818;22;20504;-70
2022/12/30 08:24:48;;;;;;;13.77;4.03;;;;;;;;;;6240383;22;20143;-72
2022/12/30 08:27:14;;;;;;;12.80;2.53;;;;;;;;;;6238702;22;20143;-71
2022/12/30 08:29:39;;;;;;;9.23;3.03;;;;;;;;;;6240829;22;20204;-71
2022/12/30 08:32:04;;;;;;;14.07;2.77;;;;;;;;;;6237072;22;20273;-71
2022/12/30 08:34:30;;;;;;;10.43;3.03;;;;;;;;;;6241959;22;20605;-71
2022/12/30 08:36:55;;;;;;;14.03;2.73;;;;;;;;;;6241768;22;20280;-71
2022/12/30 08:39:20;;;;;;;9.30;3.00;;;;;;;;;;6242798;22;20166;-71
2022/12/30 08:41:46;;;;;;;10.80;3.03;;;;;;;;;;6241239;22;20178;-71
2022/12/30 08:44:12;;;;;;;11.03;3.10;;;;;;;;;;6235961;22;20128;-70
2022/12/30 08:46:38;;;;;;;8.33;2.90;;;;;;;;;;6240357;22;20408;-70
2022/12/30 08:49:04;;;;;;;13.77;3.50;;;;;;;;;;6237455;22;20152;-70
2022/12/30 08:51:30;;;;;;;9.80;2.47;;;;;;;;;;6235449;22;20439;-71
2022/12/30 08:53:55;;;;;;;10.00;3.17;;;;;;;;;;6236862;22;20143;-71
2022/12/30 08:56:22;;;;;;;10.60;2.70;;;;;;;;;;6237228;23;20525;-71
2022/12/30 08:58:47;;;;;;;14.07;2.80;;;;;;;;;;6233688;22;20657;-72
2022/12/30 09:01:14;;;;;;;12.60;3.27;;;;;;;;;;6234240;22;20387;-71
2022/12/30 09:03:41;;;;;;;16.17;2.90;;;;;;;;;;6233664;23;20495;-72
2022/12/30 09:06:07;;;;;;;9.13;2.17;;;;;;;;;;6238337;22;20471;-72
2022/12/30 09:08:33;;;;;;;14.73;2.37;;;;;;;;;;6236971;22;20412;-72
2022/12/30 09:11:02;;;;;;;8.50;2.70;;;;;;;;;;6239968;22;20405;-71
2022/12/30 09:13:28;;;;;;;12.80;2.87;;;;;;;;;;6236955;22;20171;-72
2022/12/30 09:15:53;;;;;;;10.90;2.97;;;;;;;;;;6236425;22;20722;-70
2022/12/30 09:18:19;;;;;;;15.23;3.50;;;;;;;;;;6239314;23;20817;-71
2022/12/30 09:20:44;;;;;;;12.97;3.30;;;;;;;;;;6242322;22;20140;-71
2022/12/30 09:23:10;;;;;;;11.87;2.50;;;;;;;;;;6241678;22;20174;-71
2022/12/30 09:25:35;;;;;;;15.60;3.50;;;;;;;;;;6236091;22;20147;-71
2022/12/30 09:28:01;;;;;;;15.43;2.60;;;;;;;;;;6237023;22;20500;-72
2022/12/30 09:30:26;;;;;;;15.00;3.90;;;;;;;;;;6239286;23;20187;-72
2022/12/30 09:32:51;;;;;;;11.37;2.50;;;;;;;;;;6239299;22;20167;-73
2022/12/30 09:35:16;;;;;;;10.80;2.80;;;;;;;;;;6240524;22;20150;-72
2022/12/30 09:37:42;;;;;;;15.43;3.40;;;;;;;;;;6238394;23;20154;-72
2022/12/30 09:40:12;;;;;;;9.10;2.80;;;;;;;;;;6237115;23;20178;-72
2022/12/30 09:45:27;;;;;;;9.60;3.20;;;;;;;;;;6232253;23;20932;-69
2022/12/30 09:47:54;;;;;;;7.57;2.60;;;;;;;;;;6232560;22;20833;-72
2022/12/30 09:50:38;;;;;;;12.20;2.50;;;;;;;;;;6235505;22;20370;-72
2022/12/30 09:53:06;;;;;;;11.57;3.27;;;;;;;;;;6235621;22;20396;-75
2022/12/30 09:55:45;;;;;;;15.10;3.23;;;;;;;;;;6241097;22;20852;-74
2022/12/30 09:58:12;;;;;;;14.27;2.53;;;;;;;;;;6237286;22;20684;-72
2022/12/30 10:00:37;;;;;;;9.67;2.60;;;;;;;;;;6237421;22;20369;-74
2022/12/30 10:03:08;;;;;;;13.53;3.57;;;;;;;;;;6238976;22;20390;-73
2022/12/30 10:06:01;;;;;;;9.50;2.50;;;;;;;;;;6240013;22;20151;-74
2022/12/30 10:08:39;;;;;;;11.10;2.50;;;;;;;;;;6239339;22;20366;-74
2022/12/30 10:11:05;;;;;;;9.83;3.03;;;;;;;;;;6238969;22;20362;-74
2022/12/30 10:13:34;;;;;;;14.77;2.87;;;;;;;;;;6235770;22;20900;-73
2022/12/30 10:16:07;;;;;;;12.03;2.43;;;;;;;;;;6229952;23;20237;-72
2022/12/30 10:18:36;;;;;;;16.40;3.43;;;;;;;;;;6228663;23;20651;-72
2022/12/30 10:21:21;;;;;;;6.87;2.60;;;;;;;;;;6234041;22;20370;-73
2022/12/30 10:24:05;;;;;;;8.70;2.33;;;;;;;;;;6237476;22;20377;-73
2022/12/30 10:26:50;;;;;;;10.73;2.20;;;;;;;;;;6238040;22;20369;-73
2022/12/30 10:29:20;;;;;;;9.50;2.77;;;;;;;;;;6238487;22;20431;-72
2022/12/30 10:31:46;;;;;;;9.43;2.37;;;;;;;;;;6238834;22;20485;-73
2022/12/30 10:34:13;;;;;;;8.60;2.40;;;;;;;;;;6238663;22;20450;-72
2022/12/30 10:36:58;;;;;;;8.20;2.57;;;;;;;;;;6239055;22;20370;-71
2022/12/30 10:39:34;;;;;;;9.90;2.80;;;;;;;;;;6235450;23;20428;-72
2022/12/30 10:42:06;;;;;;;12.60;3.33;;;;;;;;;;6235690;22;20471;-73
2022/12/30 10:44:34;;;;;;;10.00;3.07;;;;;;;;;;6235035;22;20428;-72
2022/12/30 10:47:06;;;;;;;10.70;3.07;;;;;;;;;;6233792;22;20833;-71
2022/12/30 10:49:40;;;;;;;8.27;2.90;;;;;;;;;;6235893;23;20370;-70
2022/12/30 10:52:07;;;;;;;8.10;2.77;;;;;;;;;;6235502;22;20377;-71
2022/12/30 10:54:33;;;;;;;10.53;2.70;;;;;;;;;;6235330;22;20369;-73
2022/12/30 10:56:58;;;;;;;6.53;2.53;;;;;;;;;;6233302;23;20389;-71
2022/12/30 10:59:25;;;;;;;10.00;2.70;;;;;;;;;;6237140;22;20174;-70
2022/12/30 11:01:55;;;;;;;11.40;2.70;;;;;;;;;;6234210;22;20616;-72
2022/12/30 11:04:39;;;;;;;8.97;2.40;;;;;;;;;;6235062;22;20366;-72
2022/12/30 11:07:06;;;;;;;7.73;2.67;;;;;;;;;;6234600;22;20366;-72
2022/12/30 11:09:31;;;;;;;8.87;2.43;;;;;;;;;;6238900;22;20465;-72
2022/12/30 11:14:46;;;;;;;11.37;3.00;;;;;;;;;;6234553;23;20170;-71
2022/12/30 11:17:14;;;;;;;6.77;2.07;;;;;;;;;;6236688;22;20401;-70
2022/12/30 11:19:40;;;;;;;11.30;2.60;;;;;;;;;;6233227;23;20437;-71
2022/12/30 11:22:05;;;;;;;8.27;2.40;;;;;;;;;;6238528;22;20386;-72
2022/12/30 11:24:30;;;;;;;7.43;2.33;;;;;;;;;;6238379;23;20148;-72
2022/12/30 11:26:56;;;;;;;12.40;2.50;;;;;;;;;;6238935;23;20150;-72
2022/12/30 11:29:22;;;;;;;6.20;2.10;;;;;;;;;;6237199;22;20161;-72
2022/12/30 11:31:50;;;;;;;6.70;1.83;;;;;;;;;;6236588;22;20202;-71
2022/12/30 11:34:19;;;;;;;7.60;2.20;;;;;;;;;;6237743;22;20362;-72
2022/12/30 11:36:44;;;;;;;9.87;2.13;;;;;;;;;;6236530;22;20389;-72
2022/12/30 11:39:24;;;;;;;9.60;2.43;;;;;;;;;;6236326;22;20426;-71
2022/12/30 11:41:53;;;;;;;6.60;2.33;;;;;;;;;;6236836;22;20492;-70
2022/12/30 11:44:23;;;;;;;5.77;1.60;;;;;;;;;;6237047;22;20374;-71
2022/12/30 11:46:51;;;;;;;11.37;1.83;;;;;;;;;;6237662;22;20401;-71
2022/12/30 11:49:27;;;;;;;7.40;2.10;;;;;;;;;;6234679;22;20844;-71
2022/12/30 11:52:05;;;;;;;8.80;2.43;;;;;;;;;;6236227;22;20397;-73
2022/12/30 11:54:31;;;;;;;9.17;2.10;;;;;;;;;;6238204;22;20397;-72
2022/12/30 11:57:01;;;;;;;9.77;2.40;;;;;;;;;;6235905;23;20416;-72
2022/12/30 11:59:31;;;;;;;7.90;2.00;;;;;;;;;;6234343;23;20426;-72
2022/12/30 12:01:58;;;;;;;5.23;2.20;;;;;;;;;;6236017;22;20383;-71
2022/12/30 12:04:40;;;;;;;7.50;2.00;;;;;;;;;;6237327;22;20370;-70
2022/12/30 12:09:38;;;;;;;5.43;1.80;;;;;;;;;;6224340;23;20493;-74
2022/12/30 12:12:10;;;;;;;4.90;2.00;;;;;;;;;;6208015;23;20377;-74
2022/12/30 12:14:45;;;;;;;6.33;2.40;;;;;;;;;;6234271;23;20369;-76
2022/12/30 12:17:29;;;;;;;7.43;2.00;;;;;;;;;;6237987;23;20342;-73
2022/12/30 12:20:03;;;;;;;8.67;2.47;;;;;;;;;;6235152;23;20422;-77
2022/12/30 12:22:37;;;;;;;5.30;1.80;;;;;;;;;;6238944;22;20350;-74
2022/12/30 12:25:06;;;;;;;6.10;1.83;;;;;;;;;;6236657;23;20374;-74
2022/12/30 12:27:32;;;;;;;6.50;2.00;;;;;;;;;;6238128;22;20460;-73
2022/12/30 12:29:57;;;;;;;6.83;2.17;;;;;;;;;;6236518;23;20406;-73
2022/12/30 12:32:25;;;;;;;9.43;2.17;;;;;;;;;;6238328;23;20242;-74
2022/12/30 12:35:09;;;;;;;5.13;1.90;;;;;;;;;;6241262;23;20152;-75
2022/12/30 12:37:58;;;;;;;6.57;2.20;;;;;;;;;;6236204;23;20382;-75
2022/12/30 12:40:39;;;;;;;6.70;2.07;;;;;;;;;;6236584;22;20707;-74
2022/12/30 12:43:08;;;;;;;6.13;1.93;;;;;;;;;;6238082;22;20743;-75
2022/12/30 12:45:52;;;;;;;5.30;2.07;;;;;;;;;;6231773;23;20924;-75
2022/12/30 12:48:26;;;;;;;5.07;2.30;;;;;;;;;;6236317;23;20477;-75
2022/12/30 12:51:15;;;;;;;6.20;2.03;;;;;;;;;;6239685;23;20372;-75
2022/12/30 12:53:59;;;;;;;10.40;2.30;;;;;;;;;;6235719;23;20457;-74
2022/12/30 12:56:27;;;;;;;7.57;1.80;;;;;;;;;;6237799;23;20385;-74
2022/12/30 12:59:28;;;;;;;8.70;2.40;;;;;;;;;;6239052;23;20471;-75
2022/12/30 13:02:02;;;;;;;8.83;2.47;;;;;;;;;;6175921;23;20598;-74
2022/12/30 13:04:35;;;;;;;6.20;2.10;;;;;;;;;;6222379;23;20377;-75
2022/12/30 13:07:19;;;;;;;6.90;2.13;;;;;;;;;;6236228;23;20755;-75
2022/12/30 13:10:01;;;;;;;6.57;1.80;;;;;;;;;;6240254;23;20358;-74
2022/12/30 13:12:26;;;;;;;9.83;1.53;;;;;;;;;;6236600;22;20346;-75
2022/12/30 13:14:54;;;;;;;8.03;2.10;;;;;;;;;;6237648;23;20365;-76
2022/12/30 13:17:33;;;;;;;4.63;1.77;;;;;;;;;;6239462;22;20174;-76
2022/12/30 13:20:00;;;;;;;6.07;1.60;;;;;;;;;;6235571;22;20421;-75
2022/12/30 13:22:30;;;;;;;4.40;1.60;;;;;;;;;;6237790;22;20469;-75
2022/12/30 13:24:57;;;;;;;4.10;1.50;;;;;;;;;;6237214;22;20357;-75
2022/12/30 13:27:33;;;;;;;3.57;1.30;;;;;;;;;;6238056;22;20396;-75
2022/12/30 13:30:00;;;;;;;4.57;1.70;;;;;;;;;;6240548;22;20358;-76
2022/12/30 13:32:31;;;;;;;4.60;1.70;;;;;;;;;;6240090;23;20369;-75
2022/12/30 13:35:17;;;;;;;6.23;1.80;;;;;;;;;;6238619;23;20375;-76
2022/12/30 13:37:47;;;;;;;4.90;2.00;;;;;;;;;;6234501;23;20900;-74
2022/12/30 13:40:14;;;;;;;6.27;1.77;;;;;;;;;;6238078;23;20501;-75
2022/12/30 13:42:58;;;;;;;3.93;1.37;;;;;;;;;;6236179;22;20365;-73
2022/12/30 13:45:28;;;;;;;4.40;1.50;;;;;;;;;;6238945;23;20423;-75
2022/12/30 13:48:02;;;;;;;4.40;1.70;;;;;;;;;;6238411;22;20443;-75
2022/12/30 13:50:28;;;;;;;4.93;1.33;;;;;;;;;;6239078;22;20359;-75
2022/12/30 13:52:55;;;;;;;6.47;1.40;;;;;;;;;;6232298;22;20652;-74
2022/12/30 13:55:32;;;;;;;5.13;1.77;;;;;;;;;;6239088;22;20393;-74
2022/12/30 13:58:05;;;;;;;3.07;1.30;;;;;;;;;;6236538;22;21018;-75
2022/12/30 14:00:38;;;;;;;10.97;1.57;;;;;;;;;;6238725;22;20402;-74
2022/12/30 14:03:32;;;;;;;5.10;1.40;;;;;;;;;;6239527;22;20808;-75
2022/12/30 14:06:01;;;;;;;6.30;2.20;;;;;;;;;;6236319;22;20406;-75
2022/12/30 14:08:26;;;;;;;6.63;1.50;;;;;;;;;;6238799;22;20409;-75
2022/12/30 14:11:00;;;;;;;4.47;1.50;;;;;;;;;;6238409;23;20386;-73
2022/12/30 14:13:26;;;;;;;4.47;1.50;;;;;;;;;;6241178;23;20138;-73
2022/12/30 14:15:53;;;;;;;9.97;2.17;;;;;;;;;;6238641;23;20385;-73
2022/12/30 14:18:20;;;;;;;9.60;2.23;;;;;;;;;;6241273;23;20651;-73
2022/12/30 14:20:54;;;;;;;8.43;1.73;;;;;;;;;;6239987;22;20362;-73
2022/12/30 14:23:37;;;;;;;6.13;1.50;;;;;;;;;;6242264;22;20363;-75
2022/12/30 14:26:17;;;;;;;7.67;1.77;;;;;;;;;;6245300;22;20958;-73
2022/12/30 14:28:43;;;;;;;4.23;1.50;;;;;;;;;;6242140;23;20394;-73
2022/12/30 14:31:29;;;;;;;5.23;1.17;;;;;;;;;;6240616;23;20786;-73
2022/12/30 14:33:56;;;;;;;10.03;2.00;;;;;;;;;;6230596;23;20717;-73
2022/12/30 14:36:23;;;;;;;6.27;1.97;;;;;;;;;;6239374;22;20393;-73
2022/12/30 14:38:48;;;;;;;4.60;1.40;;;;;;;;;;6238829;22;20938;-73
2022/12/30 14:41:24;;;;;;;8.90;1.60;;;;;;;;;;6242593;23;20366;-74
2022/12/30 14:43:51;;;;;;;3.53;1.70;;;;;;;;;;6240663;23;20138;-73
2022/12/30 14:46:36;;;;;;;2.07;1.13;;;;;;;;;;6240901;22;20362;-73
2022/12/30 14:49:01;;;;;;;3.80;1.27;;;;;;;;;;6239216;23;20404;-73
2022/12/30 14:51:26;;;;;;;4.57;1.97;;;;;;;;;;6241255;23;20367;-73
2022/12/30 14:53:52;;;;;;;3.70;1.60;;;;;;;;;;6240890;22;20155;-75
2022/12/30 14:56:18;;;;;;;5.23;1.90;;;;;;;;;;6240616;23;20594;-73
2022/12/30 14:58:45;;;;;;;5.30;1.47;;;;;;;;;;6241245;22;20622;-73
2022/12/30 15:01:11;;;;;;;5.53;1.53;;;;;;;;;;6242288;22;20370;-73
2022/12/30 15:03:37;;;;;;;3.70;1.40;;;;;;;;;;6236812;23;20378;-73
2022/12/30 15:06:02;;;;;;;5.93;1.50;;;;;;;;;;6239154;23;20366;-73
2022/12/30 15:08:32;;;;;;;7.70;1.53;;;;;;;;;;6240646;23;20241;-74
2022/12/30 15:11:02;;;;;;;3.37;1.07;;;;;;;;;;6241952;22;20151;-73
2022/12/30 15:13:40;;;;;;;2.80;1.53;;;;;;;;;;6241782;22;20519;-72
2022/12/30 15:16:16;;;;;;;3.30;1.10;;;;;;;;;;6238444;22;20429;-73
2022/12/30 15:18:48;;;;;;;7.90;2.60;;;;;;;;;;6237899;22;20720;-73
2022/12/30 15:21:17;;;;;;;4.40;1.30;;;;;;;;;;6240314;22;20370;-74
2022/12/30 15:23:42;;;;;;;5.63;1.80;;;;;;;;;;6240862;23;20370;-74
2022/12/30 15:26:13;;;;;;;4.70;1.60;;;;;;;;;;6233654;23;20374;-74
2022/12/30 15:28:39;;;;;;;6.63;1.97;;;;;;;;;;6239304;22;20163;-74
2022/12/30 15:31:04;;;;;;;4.33;2.03;;;;;;;;;;6236740;23;20378;-73
2022/12/30 15:33:29;;;;;;;5.07;1.77;;;;;;;;;;6239665;23;20158;-73
2022/12/30 15:35:55;;;;;;;10.30;1.93;;;;;;;;;;6236203;23;20148;-73
2022/12/30 15:38:28;;;;;;;5.00;1.67;;;;;;;;;;6238460;23;20530;-76